Time;durP1;ratioP1;P1;durP2;ratioP2;P2;SDS_P1;SDS_P2;PMS_P1;PMS_P2;Temp;Humidity;BMP_temperature;BMP_pressure;BME280_temperature;BME280_humidity;BME280_pressure;Samples;Min_cycle;Max_cycle;Signal;HPM_P1;HPM_P2
2022/03/29 00:00:17;;;;;;;;;;;;;;;;;;5047303;28;20310;-51
2022/03/29 00:02:43;;;;;;;;;;;;;;;;;;5046864;28;19953;-47
2022/03/29 00:05:09;;;;;;;;;;;;;;;;;;5047411;28;20407;-47
2022/03/29 00:07:35;;;;;;;;;;;;;;;;;;5045199;28;20005;-47
2022/03/29 00:10:04;;;;;;;;;;;;;;;;;;5047080;28;19913;-48
2022/03/29 00:12:30;;;;;;;;;;;;;;;;;;5047058;28;19911;-49
2022/03/29 00:14:56;;;;;;;;;;;;;;;;;;5036022;28;19947;-50
2022/03/29 00:17:23;;;;;;;;;;;;;;;;;;5042556;28;19912;-51
2022/03/29 00:19:49;;;;;;;;;;;;;;;;;;5047492;28;19912;-48
2022/03/29 00:22:15;;;;;;;;;;;;;;;;;;5046801;28;19905;-48
2022/03/29 00:24:41;;;;;;;;;;;;;;;;;;5046620;28;19978;-48
2022/03/29 00:27:07;;;;;;;;;;;;;;;;;;5045949;28;19912;-47
2022/03/29 00:29:34;;;;;;;;;;;;;;;;;;5046726;28;19915;-48
2022/03/29 00:32:00;;;;;;;;;;;;;;;;;;5046566;28;19905;-47
2022/03/29 00:34:26;;;;;;;;;;;;;;;;;;5046734;28;19905;-49
2022/03/29 00:36:52;;;;;;;;;;;;;;;;;;5045830;28;20449;-47
2022/03/29 00:39:18;;;;;;;;;;;;;;;;;;5047435;28;19912;-47
2022/03/29 00:41:44;;;;;;;;;;;;;;;;;;5044798;28;19962;-48
2022/03/29 00:44:10;;;;;;;;;;;;;;;;;;5046862;28;19909;-47
2022/03/29 00:46:36;;;;;;;;;;;;;;;;;;5046205;28;20435;-47
2022/03/29 00:49:02;;;;;;;;;;;;;;;;;;5026533;28;19920;-48
2022/03/29 00:51:28;;;;;;;;;;;;;;;;;;5026247;28;19955;-49
2022/03/29 00:53:54;;;;;;;;;;;;;;;;;;5026615;28;19909;-47
2022/03/29 00:56:20;;;;;;;;;;;;;;;;;;5027205;28;20000;-50
2022/03/29 00:58:46;;;;;;;;;;;;;;;;;;5026092;28;19913;-48
2022/03/29 01:01:12;;;;;;;;;;;;;;;;;;5026075;28;20031;-50
2022/03/29 01:03:38;;;;;;;;;;;;;;;;;;5043220;28;19954;-52
2022/03/29 01:06:04;;;;;;;;;;;;;;;;;;5046506;28;20326;-52
2022/03/29 01:08:30;;;;;;;;;;;;;;;;;;5046191;28;19928;-50
2022/03/29 01:10:56;;;;;;;;;;;;;;;;;;5045803;28;19995;-47
2022/03/29 01:13:22;;;;;;;;;;;;;;;;;;5046534;28;19970;-48
2022/03/29 01:15:50;;;;;;;;;;;;;;;;;;5046871;28;19915;-48
2022/03/29 01:18:16;;;;;;;;;;;;;;;;;;5025707;28;19913;-48
2022/03/29 01:20:42;;;;;;;;;;;;;;;;;;5029796;28;19913;-50
2022/03/29 01:23:08;;;;;;;;;;;;;;;;;;5034420;28;20338;-49
2022/03/29 01:25:34;;;;;;;;;;;;;;;;;;5027950;28;19905;-52
2022/03/29 01:28:00;;;;;;;;;;;;;;;;;;5028262;28;20328;-51
2022/03/29 01:30:26;;;;;;;;;;;;;;;;;;5028033;28;19916;-52
2022/03/29 01:32:52;;;;;;;;;;;;;;;;;;5042837;28;19908;-52
2022/03/29 01:35:18;;;;;;;;;;;;;;;;;;5048605;28;20433;-51
2022/03/29 01:37:44;;;;;;;;;;;;;;;;;;5047684;28;20361;-48
2022/03/29 01:40:10;;;;;;;;;;;;;;;;;;5047606;28;19936;-48
2022/03/29 01:42:37;;;;;;;;;;;;;;;;;;5047586;28;19905;-48
2022/03/29 01:45:03;;;;;;;;;;;;;;;;;;5047904;28;19947;-47
2022/03/29 01:47:29;;;;;;;;;;;;;;;;;;5046038;28;19917;-47
2022/03/29 01:49:55;;;;;;;;;;;;;;;;;;5047732;28;19959;-49
2022/03/29 01:52:21;;;;;;;;;;;;;;;;;;5047893;28;19905;-49
2022/03/29 01:54:47;;;;;;;;;;;;;;;;;;5047620;28;19912;-48
2022/03/29 01:57:13;;;;;;;;;;;;;;;;;;5047377;28;20631;-48
2022/03/29 02:02:24;;;;;;;;;;;;;;;;;;5045213;28;19920;-47
2022/03/29 02:04:50;;;;;;;;;;;;;;;;;;5048049;28;20291;-47
2022/03/29 02:07:16;;;;;;;;;;;;;;;;;;5047438;28;19924;-48
2022/03/29 02:09:42;;;;;;;;;;;;;;;;;;5046937;28;19924;-48
2022/03/29 02:12:09;;;;;;;;;;;;;;;;;;5047059;28;19904;-50
2022/03/29 02:14:35;;;;;;;;;;;;;;;;;;5045541;28;19960;-47
2022/03/29 02:17:01;;;;;;;;;;;;;;;;;;5046909;28;19904;-49
2022/03/29 02:19:27;;;;;;;;;;;;;;;;;;5046962;28;20054;-48
2022/03/29 02:21:53;;;;;;;;;;;;;;;;;;5034537;28;20659;-47
2022/03/29 02:24:19;;;;;;;;;;;;;;;;;;5027735;28;19909;-50
2022/03/29 02:26:45;;;;;;;;;;;;;;;;;;5026775;28;19940;-49
2022/03/29 02:29:11;;;;;;;;;;;;;;;;;;5027107;28;19905;-47
2022/03/29 02:31:37;;;;;;;;;;;;;;;;;;5026703;28;19911;-48
2022/03/29 02:34:03;;;;;;;;;;;;;;;;;;5027259;28;19931;-48
2022/03/29 02:36:29;;;;;;;;;;;;;;;;;;5035485;28;20342;-50
2022/03/29 02:38:55;;;;;;;;;;;;;;;;;;5046639;28;20378;-48
2022/03/29 02:41:21;;;;;;;;;;;;;;;;;;5047434;28;20333;-48
2022/03/29 02:43:47;;;;;;;;;;;;;;;;;;5046585;28;20003;-49
2022/03/29 02:46:13;;;;;;;;;;;;;;;;;;5046486;28;20257;-47
2022/03/29 02:48:39;;;;;;;;;;;;;;;;;;5046361;28;19962;-48
2022/03/29 02:51:05;;;;;;;;;;;;;;;;;;5045158;28;19909;-47
2022/03/29 02:53:32;;;;;;;;;;;;;;;;;;5046267;28;20007;-49
2022/03/29 02:55:58;;;;;;;;;;;;;;;;;;5046795;28;19908;-48
2022/03/29 02:58:25;;;;;;;;;;;;;;;;;;5046294;28;19913;-51
2022/03/29 03:00:51;;;;;;;;;;;;;;;;;;5049399;28;20450;-49
2022/03/29 03:03:17;;;;;;;;;;;;;;;;;;5051488;28;19908;-48
2022/03/29 03:05:44;;;;;;;;;;;;;;;;;;5041763;28;19920;-51
2022/03/29 03:08:10;;;;;;;;;;;;;;;;;;5030497;28;19905;-49
2022/03/29 03:10:36;;;;;;;;;;;;;;;;;;5029892;28;19932;-47
2022/03/29 03:13:02;;;;;;;;;;;;;;;;;;5030892;28;19912;-48
2022/03/29 03:15:29;;;;;;;;;;;;;;;;;;5047939;28;19940;-49
2022/03/29 03:17:55;;;;;;;;;;;;;;;;;;5050157;28;19915;-47
2022/03/29 03:20:21;;;;;;;;;;;;;;;;;;5049967;28;19913;-49
2022/03/29 03:22:47;;;;;;;;;;;;;;;;;;5050364;28;19916;-48
2022/03/29 03:25:13;;;;;;;;;;;;;;;;;;5050426;28;20331;-47
2022/03/29 03:27:40;;;;;;;;;;;;;;;;;;5049928;28;19908;-48
2022/03/29 03:30:06;;;;;;;;;;;;;;;;;;5050166;28;19912;-48
2022/03/29 03:32:32;;;;;;;;;;;;;;;;;;5049856;28;20423;-48
2022/03/29 03:34:58;;;;;;;;;;;;;;;;;;5048617;28;19908;-47
2022/03/29 03:37:26;;;;;;;;;;;;;;;;;;5050098;28;19999;-48
2022/03/29 03:39:52;;;;;;;;;;;;;;;;;;5049872;28;20265;-52
2022/03/29 03:42:18;;;;;;;;;;;;;;;;;;5050510;28;19952;-48
2022/03/29 03:44:44;;;;;;;;;;;;;;;;;;5049795;28;19915;-47
2022/03/29 03:47:10;;;;;;;;;;;;;;;;;;5049889;28;19957;-47
2022/03/29 03:49:36;;;;;;;;;;;;;;;;;;5048003;28;19916;-48
2022/03/29 03:52:02;;;;;;;;;;;;;;;;;;5049584;28;20372;-47
2022/03/29 03:54:28;;;;;;;;;;;;;;;;;;5049532;28;20277;-48
2022/03/29 03:56:55;;;;;;;;;;;;;;;;;;5049692;28;19915;-48
2022/03/29 03:59:21;;;;;;;;;;;;;;;;;;5050117;28;19963;-48
2022/03/29 04:01:47;;;;;;;;;;;;;;;;;;5047937;28;19919;-49
2022/03/29 04:04:13;;;;;;;;;;;;;;;;;;5049733;28;19909;-48
2022/03/29 04:06:39;;;;;;;;;;;;;;;;;;5047829;28;20405;-48
2022/03/29 04:09:05;;;;;;;;;;;;;;;;;;5047943;28;19917;-49
2022/03/29 04:11:31;;;;;;;;;;;;;;;;;;5048720;28;20284;-48
2022/03/29 04:13:58;;;;;;;;;;;;;;;;;;5049308;28;19905;-47
2022/03/29 04:16:25;;;;;;;;;;;;;;;;;;5049153;28;20019;-48
2022/03/29 04:18:51;;;;;;;;;;;;;;;;;;5048809;28;19952;-49
2022/03/29 04:21:17;;;;;;;;;;;;;;;;;;5029437;28;19905;-47
2022/03/29 04:23:43;;;;;;;;;;;;;;;;;;5030939;28;19996;-50
2022/03/29 04:26:09;;;;;;;;;;;;;;;;;;5048931;28;20347;-50
2022/03/29 04:28:35;;;;;;;;;;;;;;;;;;5038974;28;19956;-47
2022/03/29 04:31:01;;;;;;;;;;;;;;;;;;5028806;28;19909;-49
2022/03/29 04:33:27;;;;;;;;;;;;;;;;;;5029073;28;20380;-50
2022/03/29 04:35:54;;;;;;;;;;;;;;;;;;5028851;28;19940;-50
2022/03/29 04:38:20;;;;;;;;;;;;;;;;;;5029531;28;19920;-50
2022/03/29 04:40:46;;;;;;;;;;;;;;;;;;5028638;28;19912;-48
2022/03/29 04:43:12;;;;;;;;;;;;;;;;;;5035365;28;20398;-49
2022/03/29 04:45:39;;;;;;;;;;;;;;;;;;5048243;28;19912;-48
2022/03/29 04:48:05;;;;;;;;;;;;;;;;;;5048462;28;19955;-48
2022/03/29 04:50:31;;;;;;;;;;;;;;;;;;5048644;28;19958;-47
2022/03/29 04:52:57;;;;;;;;;;;;;;;;;;5048688;28;20507;-49
2022/03/29 04:55:23;;;;;;;;;;;;;;;;;;5048509;28;19909;-49
2022/03/29 04:57:49;;;;;;;;;;;;;;;;;;5041576;28;19909;-47
2022/03/29 05:00:16;;;;;;;;;;;;;;;;;;5028208;28;19912;-47
2022/03/29 05:02:43;;;;;;;;;;;;;;;;;;5028185;28;19909;-47
2022/03/29 05:05:13;;;;;;;;;;;;;;;;;;5028214;28;19916;-49
2022/03/29 05:07:39;;;;;;;;;;;;;;;;;;5027732;28;19955;-47
2022/03/29 05:10:05;;;;;;;;;;;;;;;;;;5028043;28;20319;-52
2022/03/29 05:12:31;;;;;;;;;;;;;;;;;;5028343;28;20361;-49
2022/03/29 05:14:58;;;;;;;;;;;;;;;;;;5047937;28;19909;-48
2022/03/29 05:17:24;;;;;;;;;;;;;;;;;;5048104;28;20355;-48
2022/03/29 05:19:50;;;;;;;;;;;;;;;;;;5048581;28;20619;-52
2022/03/29 05:22:16;;;;;;;;;;;;;;;;;;5047066;28;19909;-51
2022/03/29 05:24:42;;;;;;;;;;;;;;;;;;5047920;28;19943;-47
2022/03/29 05:27:08;;;;;;;;;;;;;;;;;;5047240;28;20375;-49
2022/03/29 05:29:34;;;;;;;;;;;;;;;;;;5047722;28;19908;-48
2022/03/29 05:32:00;;;;;;;;;;;;;;;;;;5032681;28;19913;-48
2022/03/29 05:34:26;;;;;;;;;;;;;;;;;;5027853;28;20391;-48
2022/03/29 05:36:53;;;;;;;;;;;;;;;;;;5036842;28;20306;-51
2022/03/29 05:39:19;;;;;;;;;;;;;;;;;;5046332;28;20303;-51
2022/03/29 05:41:45;;;;;;;;;;;;;;;;;;5047303;28;19982;-47
2022/03/29 05:44:11;;;;;;;;;;;;;;;;;;5047402;28;20003;-51
2022/03/29 05:49:22;;;;;;;;;;;;;;;;;;5047959;28;20013;-50
2022/03/29 05:51:50;;;;;;;;;;;;;;;;;;5047858;28;19909;-52
2022/03/29 05:54:17;;;;;;;;;;;;;;;;;;5046189;28;19912;-52
2022/03/29 05:56:43;;;;;;;;;;;;;;;;;;5047262;28;19909;-51
2022/03/29 05:59:09;;;;;;;;;;;;;;;;;;5047053;28;19985;-52
2022/03/29 06:01:35;;;;;;;;;;;;;;;;;;5046684;28;20011;-52
2022/03/29 06:04:06;;;;;;;;;;;;;;;;;;5047078;28;19927;-49
2022/03/29 06:06:33;;;;;;;;;;;;;;;;;;5029982;28;19913;-53
2022/03/29 06:08:59;;;;;;;;;;;;;;;;;;5026054;28;20106;-48
2022/03/29 06:11:25;;;;;;;;;;;;;;;;;;5025888;28;20012;-47
2022/03/29 06:13:51;;;;;;;;;;;;;;;;;;5045788;28;19909;-48
2022/03/29 06:16:17;;;;;;;;;;;;;;;;;;5045517;28;19908;-47
2022/03/29 06:18:43;;;;;;;;;;;;;;;;;;5043754;28;19908;-48
2022/03/29 06:21:09;;;;;;;;;;;;;;;;;;5045224;28;20410;-48
2022/03/29 06:23:35;;;;;;;;;;;;;;;;;;5044996;28;19944;-48
2022/03/29 06:26:01;;;;;;;;;;;;;;;;;;5025686;28;19913;-47
2022/03/29 06:28:27;;;;;;;;;;;;;;;;;;5025206;28;19963;-47
2022/03/29 06:30:54;;;;;;;;;;;;;;;;;;5026379;28;19908;-48
2022/03/29 06:33:21;;;;;;;;;;;;;;;;;;5045958;28;20479;-47
2022/03/29 06:35:47;;;;;;;;;;;;;;;;;;5044842;28;19912;-47
2022/03/29 06:38:14;;;;;;;;;;;;;;;;;;5030566;28;19909;-47
2022/03/29 06:40:40;;;;;;;;;;;;;;;;;;5024959;28;19905;-47
2022/03/29 06:43:06;;;;;;;;;;;;;;;;;;5032731;28;20316;-48
2022/03/29 06:45:32;;;;;;;;;;;;;;;;;;5055433;28;19905;-48
2022/03/29 06:47:58;;;;;;;;;;;;;;;;;;5045248;28;20336;-48
2022/03/29 06:50:24;;;;;;;;;;;;;;;;;;5045152;28;19905;-47
2022/03/29 06:52:50;;;;;;;;;;;;;;;;;;5044635;28;20247;-48
2022/03/29 06:55:17;;;;;;;;;;;;;;;;;;5038586;28;19913;-49
2022/03/29 06:57:43;;;;;;;;;;;;;;;;;;5030938;28;19950;-49
2022/03/29 07:00:12;;;;;;;;;;;;;;;;;;5037341;28;19920;-48
2022/03/29 07:02:39;;;;;;;;;;;;;;;;;;5024298;28;19912;-49
2022/03/29 07:05:06;;;;;;;;;;;;;;;;;;5026475;28;19905;-50
2022/03/29 07:07:32;;;;;;;;;;;;;;;;;;5025639;28;19905;-48
2022/03/29 07:12:44;;;;;;;;;;;;;;;;;;5024455;28;19936;-48
2022/03/29 07:15:10;;;;;;;;;;;;;;;;;;5024892;28;20013;-49
2022/03/29 07:17:36;;;;;;;;;;;;;;;;;;5024753;28;19940;-47
2022/03/29 07:20:02;;;;;;;;;;;;;;;;;;5025093;28;20372;-48
2022/03/29 07:22:28;;;;;;;;;;;;;;;;;;5024374;28;19959;-48
2022/03/29 07:24:55;;;;;;;;;;;;;;;;;;5024746;28;19905;-51
2022/03/29 07:27:21;;;;;;;;;;;;;;;;;;5025004;28;19913;-47
2022/03/29 07:29:50;;;;;;;;;;;;;;;;;;5025194;28;20327;-52
2022/03/29 07:32:16;;;;;;;;;;;;;;;;;;5024585;28;19976;-50
2022/03/29 07:34:42;;;;;;;;;;;;;;;;;;5024513;28;19923;-50
2022/03/29 07:37:08;;;;;;;;;;;;;;;;;;5024776;28;19956;-50
2022/03/29 07:39:34;;;;;;;;;;;;;;;;;;5024279;28;19909;-49
2022/03/29 07:42:01;;;;;;;;;;;;;;;;;;5024597;28;19905;-47
2022/03/29 07:44:27;;;;;;;;;;;;;;;;;;5024608;28;19916;-47
2022/03/29 07:46:53;;;;;;;;;;;;;;;;;;5027267;28;19952;-47
2022/03/29 07:49:19;;;;;;;;;;;;;;;;;;5029128;28;19911;-48
2022/03/29 07:51:45;;;;;;;;;;;;;;;;;;5027924;28;20466;-51
2022/03/29 07:54:11;;;;;;;;;;;;;;;;;;5028376;28;19912;-48
2022/03/29 07:56:38;;;;;;;;;;;;;;;;;;5028048;28;19962;-47
2022/03/29 07:59:04;;;;;;;;;;;;;;;;;;5027940;28;19909;-48
2022/03/29 08:01:30;;;;;;;;;;;;;;;;;;5027902;28;20434;-49
2022/03/29 08:03:56;;;;;;;;;;;;;;;;;;5028138;28;19986;-48
2022/03/29 08:06:22;;;;;;;;;;;;;;;;;;5028469;28;19920;-48
2022/03/29 08:08:48;;;;;;;;;;;;;;;;;;5028301;28;20384;-47
2022/03/29 08:11:14;;;;;;;;;;;;;;;;;;5027796;28;19908;-49
2022/03/29 08:13:40;;;;;;;;;;;;;;;;;;5027471;28;19927;-50
2022/03/29 08:16:06;;;;;;;;;;;;;;;;;;5028000;28;19909;-49
2022/03/29 08:18:35;;;;;;;;;;;;;;;;;;5027628;28;19913;-50
2022/03/29 08:21:01;;;;;;;;;;;;;;;;;;5027614;28;19971;-47
2022/03/29 08:23:30;;;;;;;;;;;;;;;;;;5027964;28;19909;-50
2022/03/29 08:25:57;;;;;;;;;;;;;;;;;;5027562;28;19992;-48
2022/03/29 08:28:23;;;;;;;;;;;;;;;;;;5027627;28;19992;-47
2022/03/29 08:30:49;;;;;;;;;;;;;;;;;;5029393;28;19911;-51
2022/03/29 08:33:15;;;;;;;;;;;;;;;;;;5048127;28;19932;-48
2022/03/29 08:35:44;;;;;;;;;;;;;;;;;;5042649;28;19972;-47
2022/03/29 08:38:10;;;;;;;;;;;;;;;;;;5027448;28;19994;-48
2022/03/29 08:40:37;;;;;;;;;;;;;;;;;;5027416;28;19959;-50
2022/03/29 08:43:05;;;;;;;;;;;;;;;;;;5027252;28;19905;-47
2022/03/29 08:45:31;;;;;;;;;;;;;;;;;;5026989;28;19936;-50
2022/03/29 08:47:57;;;;;;;;;;;;;;;;;;5027248;28;19988;-50
2022/03/29 08:50:23;;;;;;;;;;;;;;;;;;5027324;28;19909;-49
2022/03/29 08:52:49;;;;;;;;;;;;;;;;;;5026856;28;19909;-48
2022/03/29 08:55:15;;;;;;;;;;;;;;;;;;5027903;28;19905;-48
2022/03/29 08:57:41;;;;;;;;;;;;;;;;;;5025687;28;19916;-49
2022/03/29 09:00:08;;;;;;;;;;;;;;;;;;5026788;28;19959;-47
2022/03/29 09:02:34;;;;;;;;;;;;;;;;;;5026578;28;20308;-47
2022/03/29 09:05:00;;;;;;;;;;;;;;;;;;5026952;28;19944;-48
2022/03/29 09:07:26;;;;;;;;;;;;;;;;;;5026992;28;19956;-48
2022/03/29 09:09:52;;;;;;;;;;;;;;;;;;5026611;28;19924;-47
2022/03/29 09:12:18;;;;;;;;;;;;;;;;;;5026655;28;20000;-48
2022/03/29 09:14:44;;;;;;;;;;;;;;;;;;5027131;28;19912;-47
2022/03/29 09:17:10;;;;;;;;;;;;;;;;;;5026730;28;19905;-47
2022/03/29 09:19:36;;;;;;;;;;;;;;;;;;5026451;28;20004;-48
2022/03/29 09:22:03;;;;;;;;;;;;;;;;;;5026524;28;19963;-49
2022/03/29 09:24:31;;;;;;;;;;;;;;;;;;5026211;28;20353;-48
2022/03/29 09:26:57;;;;;;;;;;;;;;;;;;5026404;28;19909;-47
2022/03/29 09:29:23;;;;;;;;;;;;;;;;;;5026919;28;19916;-48
2022/03/29 09:31:50;;;;;;;;;;;;;;;;;;5026142;28;19992;-47
2022/03/29 09:34:16;;;;;;;;;;;;;;;;;;5027016;28;19951;-49
2022/03/29 09:36:44;;;;;;;;;;;;;;;;;;5026348;28;19913;-48
2022/03/29 09:39:10;;;;;;;;;;;;;;;;;;5026088;28;19909;-47
2022/03/29 09:41:37;;;;;;;;;;;;;;;;;;5025735;28;19978;-48
2022/03/29 09:44:03;;;;;;;;;;;;;;;;;;5026463;28;19909;-48
2022/03/29 09:46:29;;;;;;;;;;;;;;;;;;5026383;28;19909;-47
2022/03/29 09:48:55;;;;;;;;;;;;;;;;;;5024924;28;19909;-47
2022/03/29 09:51:21;;;;;;;;;;;;;;;;;;5026277;28;19944;-47
2022/03/29 09:53:48;;;;;;;;;;;;;;;;;;5026196;28;20348;-52
2022/03/29 09:56:15;;;;;;;;;;;;;;;;;;5026655;28;19988;-50
2022/03/29 09:58:41;;;;;;;;;;;;;;;;;;5025568;28;20352;-48
2022/03/29 10:01:07;;;;;;;;;;;;;;;;;;5025943;28;19959;-47
2022/03/29 10:03:36;;;;;;;;;;;;;;;;;;5025672;28;19912;-48
2022/03/29 10:06:03;;;;;;;;;;;;;;;;;;5025861;28;19912;-49
2022/03/29 10:11:15;;;;;;;;;;;;;;;;;;5026052;28;19924;-47
2022/03/29 10:13:42;;;;;;;;;;;;;;;;;;5025562;28;19917;-47
2022/03/29 10:16:08;;;;;;;;;;;;;;;;;;5025673;28;19909;-47
2022/03/29 10:18:34;;;;;;;;;;;;;;;;;;5025744;28;20522;-47
2022/03/29 10:21:01;;;;;;;;;;;;;;;;;;5025502;28;19909;-51
2022/03/29 10:23:29;;;;;;;;;;;;;;;;;;5025494;28;19912;-48
2022/03/29 10:25:55;;;;;;;;;;;;;;;;;;5025404;28;19948;-49
2022/03/29 10:28:22;;;;;;;;;;;;;;;;;;5026926;28;19913;-48
2022/03/29 10:30:48;;;;;;;;;;;;;;;;;;5045465;28;19909;-47
2022/03/29 10:33:13;;;;;;;;;;;;;;;;;;5042251;28;20023;-46
2022/03/29 10:35:39;;;;;;;;;;;;;;;;;;5025251;28;19932;-47
2022/03/29 10:38:05;;;;;;;;;;;;;;;;;;5025602;28;19905;-47
2022/03/29 10:40:31;;;;;;;;;;;;;;;;;;5024903;28;19908;-48
2022/03/29 10:42:57;;;;;;;;;;;;;;;;;;5025736;28;19944;-47
2022/03/29 10:45:24;;;;;;;;;;;;;;;;;;5025228;28;19944;-49
2022/03/29 10:47:50;;;;;;;;;;;;;;;;;;5025210;28;19916;-48
2022/03/29 10:50:16;;;;;;;;;;;;;;;;;;5025436;28;20372;-48
2022/03/29 10:52:42;;;;;;;;;;;;;;;;;;5024971;28;20380;-48
2022/03/29 10:55:08;;;;;;;;;;;;;;;;;;5024900;28;20235;-49
2022/03/29 10:57:36;;;;;;;;;;;;;;;;;;5025240;28;19990;-48
2022/03/29 11:00:03;;;;;;;;;;;;;;;;;;5025138;28;19936;-47
2022/03/29 11:02:32;;;;;;;;;;;;;;;;;;5024722;28;19909;-48
2022/03/29 11:04:58;;;;;;;;;;;;;;;;;;5025932;28;20371;-46
2022/03/29 11:07:24;;;;;;;;;;;;;;;;;;5025213;28;19909;-49
2022/03/29 11:09:50;;;;;;;;;;;;;;;;;;5024671;28;20007;-48
2022/03/29 11:12:16;;;;;;;;;;;;;;;;;;5024944;28;20016;-47
2022/03/29 11:14:43;;;;;;;;;;;;;;;;;;5024816;28;19952;-49
2022/03/29 11:17:09;;;;;;;;;;;;;;;;;;5024974;28;19905;-50
2022/03/29 11:19:36;;;;;;;;;;;;;;;;;;5024373;28;19917;-51
2022/03/29 11:22:04;;;;;;;;;;;;;;;;;;5027659;28;19956;-48
2022/03/29 11:24:30;;;;;;;;;;;;;;;;;;5032372;28;19943;-47
2022/03/29 11:26:56;;;;;;;;;;;;;;;;;;5039799;28;20388;-48
2022/03/29 11:29:22;;;;;;;;;;;;;;;;;;5046260;28;19912;-48
2022/03/29 11:31:48;;;;;;;;;;;;;;;;;;5031841;28;19913;-50
2022/03/29 11:34:14;;;;;;;;;;;;;;;;;;5039420;28;19909;-47
2022/03/29 11:36:40;;;;;;;;;;;;;;;;;;5028467;28;19909;-47
2022/03/29 11:39:07;;;;;;;;;;;;;;;;;;5028392;28;20317;-48
2022/03/29 11:41:34;;;;;;;;;;;;;;;;;;5027751;28;19956;-48
2022/03/29 11:44:00;;;;;;;;;;;;;;;;;;5029275;28;20331;-53
2022/03/29 11:46:26;;;;;;;;;;;;;;;;;;5043242;28;19996;-49
2022/03/29 11:48:52;;;;;;;;;;;;;;;;;;5049465;28;19912;-51
2022/03/29 11:51:18;;;;;;;;;;;;;;;;;;5049680;28;19908;-52
2022/03/29 11:53:45;;;;;;;;;;;;;;;;;;5043039;28;20011;-47
2022/03/29 11:56:11;;;;;;;;;;;;;;;;;;5049504;28;20303;-51
2022/03/29 11:58:37;;;;;;;;;;;;;;;;;;5047090;28;20036;-51
2022/03/29 12:01:03;;;;;;;;;;;;;;;;;;5048073;28;19999;-49
2022/03/29 12:03:29;;;;;;;;;;;;;;;;;;5048318;28;19909;-50
2022/03/29 12:05:55;;;;;;;;;;;;;;;;;;5048732;28;19905;-48
2022/03/29 12:08:21;;;;;;;;;;;;;;;;;;5048051;28;19998;-50
2022/03/29 12:10:47;;;;;;;;;;;;;;;;;;5046355;28;19917;-50
2022/03/29 12:13:13;;;;;;;;;;;;;;;;;;5030242;28;20182;-48
2022/03/29 12:15:39;;;;;;;;;;;;;;;;;;5027892;28;19909;-48
2022/03/29 12:20:50;;;;;;;;;;;;;;;;;;5030719;28;20441;-47
2022/03/29 12:23:16;;;;;;;;;;;;;;;;;;5047525;28;20383;-50
2022/03/29 12:25:42;;;;;;;;;;;;;;;;;;5047277;28;20435;-47
2022/03/29 12:28:08;;;;;;;;;;;;;;;;;;5044852;28;19904;-48
2022/03/29 12:30:34;;;;;;;;;;;;;;;;;;5048217;28;19909;-48
2022/03/29 12:33:00;;;;;;;;;;;;;;;;;;5036166;28;19920;-50
2022/03/29 12:35:26;;;;;;;;;;;;;;;;;;5031647;28;20003;-48
2022/03/29 12:37:52;;;;;;;;;;;;;;;;;;5034063;28;20071;-48
2022/03/29 12:40:18;;;;;;;;;;;;;;;;;;5027239;28;19909;-51
2022/03/29 12:42:44;;;;;;;;;;;;;;;;;;5027317;28;19909;-50
2022/03/29 12:45:11;;;;;;;;;;;;;;;;;;5027276;28;19905;-48
2022/03/29 12:47:39;;;;;;;;;;;;;;;;;;5026950;28;19916;-50
2022/03/29 12:50:05;;;;;;;;;;;;;;;;;;5044845;28;19935;-48
2022/03/29 12:52:31;;;;;;;;;;;;;;;;;;5047756;28;20380;-50
2022/03/29 12:54:57;;;;;;;;;;;;;;;;;;5046935;28;20335;-49
2022/03/29 12:57:24;;;;;;;;;;;;;;;;;;5047180;28;20332;-49
2022/03/29 12:59:52;;;;;;;;;;;;;;;;;;5045588;28;19920;-50
2022/03/29 13:02:18;;;;;;;;;;;;;;;;;;5046620;28;19905;-51
2022/03/29 13:04:44;;;;;;;;;;;;;;;;;;5046730;28;19908;-49
2022/03/29 13:07:10;;;;;;;;;;;;;;;;;;5046928;28;19990;-52
2022/03/29 13:09:36;;;;;;;;;;;;;;;;;;5046406;28;19913;-50
2022/03/29 13:12:01;;;;;;;;;;;;;;;;;;5045794;28;19999;-49
2022/03/29 13:14:27;;;;;;;;;;;;;;;;;;5046390;28;19959;-49
2022/03/29 13:16:53;;;;;;;;;;;;;;;;;;5043911;28;19919;-49
2022/03/29 13:19:19;;;;;;;;;;;;;;;;;;5034170;28;19921;-49
2022/03/29 13:21:45;;;;;;;;;;;;;;;;;;5039631;28;19905;-48
2022/03/29 13:24:15;;;;;;;;;;;;;;;;;;5037310;28;19913;-53
2022/03/29 13:26:41;;;;;;;;;;;;;;;;;;5041173;28;19956;-51
2022/03/29 13:29:07;;;;;;;;;;;;;;;;;;5042543;28;19955;-50
2022/03/29 13:31:34;;;;;;;;;;;;;;;;;;5040419;28;19927;-51
2022/03/29 13:34:00;;;;;;;;;;;;;;;;;;5048303;28;19923;-52
2022/03/29 13:36:26;;;;;;;;;;;;;;;;;;5025749;28;20067;-49
2022/03/29 13:38:52;;;;;;;;;;;;;;;;;;5036374;28;19909;-48
2022/03/29 13:41:18;;;;;;;;;;;;;;;;;;5026264;28;19928;-50
2022/03/29 13:43:44;;;;;;;;;;;;;;;;;;5026184;28;20007;-47
2022/03/29 13:46:10;;;;;;;;;;;;;;;;;;5025875;28;19908;-48
2022/03/29 13:48:36;;;;;;;;;;;;;;;;;;5026050;28;19908;-50
2022/03/29 13:51:03;;;;;;;;;;;;;;;;;;5044523;28;19905;-50
2022/03/29 13:53:29;;;;;;;;;;;;;;;;;;5046219;28;19908;-47
2022/03/29 13:55:56;;;;;;;;;;;;;;;;;;5040786;28;19913;-50
2022/03/29 13:58:23;;;;;;;;;;;;;;;;;;5045328;28;19955;-47
2022/03/29 14:00:49;;;;;;;;;;;;;;;;;;5045313;28;20031;-47
2022/03/29 14:03:15;;;;;;;;;;;;;;;;;;5043562;28;20050;-50
2022/03/29 14:05:42;;;;;;;;;;;;;;;;;;5042463;28;20303;-49
2022/03/29 14:08:08;;;;;;;;;;;;;;;;;;5045888;28;19905;-48
2022/03/29 14:10:34;;;;;;;;;;;;;;;;;;5045267;28;19919;-50
2022/03/29 14:13:02;;;;;;;;;;;;;;;;;;5046092;28;19995;-52
2022/03/29 14:15:28;;;;;;;;;;;;;;;;;;5044261;28;19916;-51
2022/03/29 14:17:57;;;;;;;;;;;;;;;;;;5045643;28;20427;-47
2022/03/29 14:20:24;;;;;;;;;;;;;;;;;;5044763;28;20361;-49
2022/03/29 14:22:50;;;;;;;;;;;;;;;;;;5031043;28;19912;-51
2022/03/29 14:25:16;;;;;;;;;;;;;;;;;;5043784;28;20383;-51
2022/03/29 14:27:43;;;;;;;;;;;;;;;;;;5035050;28;19916;-51
2022/03/29 14:30:09;;;;;;;;;;;;;;;;;;5043148;28;19962;-52
2022/03/29 14:32:36;;;;;;;;;;;;;;;;;;5025014;28;19920;-50
2022/03/29 14:35:05;;;;;;;;;;;;;;;;;;5026233;28;20231;-48
2022/03/29 14:37:31;;;;;;;;;;;;;;;;;;5025703;28;19947;-52
2022/03/29 14:39:56;;;;;;;;;;;;;;;;;;5025448;28;19960;-50
2022/03/29 14:42:22;;;;;;;;;;;;;;;;;;5031956;28;19908;-46
2022/03/29 14:44:48;;;;;;;;;;;;;;;;;;5025286;28;19928;-48
2022/03/29 14:47:14;;;;;;;;;;;;;;;;;;5025107;28;20380;-49
2022/03/29 14:49:40;;;;;;;;;;;;;;;;;;5025220;28;19913;-48
2022/03/29 14:52:06;;;;;;;;;;;;;;;;;;5040037;28;19915;-48
2022/03/29 14:54:36;;;;;;;;;;;;;;;;;;5045093;28;19912;-48
2022/03/29 14:57:02;;;;;;;;;;;;;;;;;;5044946;28;19913;-50
2022/03/29 14:59:28;;;;;;;;;;;;;;;;;;5043510;28;19953;-48
2022/03/29 15:01:54;;;;;;;;;;;;;;;;;;5039579;28;19913;-47
2022/03/29 15:04:20;;;;;;;;;;;;;;;;;;5025346;28;19909;-47
2022/03/29 15:06:46;;;;;;;;;;;;;;;;;;5024813;28;19909;-48
2022/03/29 15:09:11;;;;;;;;;;;;;;;;;;5037360;28;20011;-47
2022/03/29 15:11:38;;;;;;;;;;;;;;;;;;5044899;28;20209;-49
2022/03/29 15:14:05;;;;;;;;;;;;;;;;;;5044791;28;20340;-48
2022/03/29 15:16:34;;;;;;;;;;;;;;;;;;5040059;28;20343;-46
2022/03/29 15:19:00;;;;;;;;;;;;;;;;;;5025321;28;19971;-46
2022/03/29 15:21:26;;;;;;;;;;;;;;;;;;5030253;28;19975;-48
2022/03/29 15:23:52;;;;;;;;;;;;;;;;;;5044164;28;19905;-47
2022/03/29 15:26:18;;;;;;;;;;;;;;;;;;5030325;28;19905;-47
2022/03/29 15:28:47;;;;;;;;;;;;;;;;;;5024665;28;20364;-49
2022/03/29 15:31:13;;;;;;;;;;;;;;;;;;5024738;28;19976;-51
2022/03/29 15:33:39;;;;;;;;;;;;;;;;;;5024748;28;20331;-50
2022/03/29 15:36:06;;;;;;;;;;;;;;;;;;5025368;28;19913;-50
2022/03/29 15:38:31;;;;;;;;;;;;;;;;;;5025463;28;19920;-50
2022/03/29 15:40:57;;;;;;;;;;;;;;;;;;5039082;28;19909;-51
2022/03/29 15:43:23;;;;;;;;;;;;;;;;;;5034133;28;19948;-47
2022/03/29 15:45:50;;;;;;;;;;;;;;;;;;5024919;28;19909;-48
2022/03/29 15:48:16;;;;;;;;;;;;;;;;;;5028880;28;19942;-46
2022/03/29 15:50:42;;;;;;;;;;;;;;;;;;5032311;28;19920;-47
2022/03/29 15:53:08;;;;;;;;;;;;;;;;;;5041513;28;19979;-47
2022/03/29 15:55:35;;;;;;;;;;;;;;;;;;5026140;28;19913;-49
2022/03/29 15:58:01;;;;;;;;;;;;;;;;;;5043837;28;19919;-48
2022/03/29 16:00:27;;;;;;;;;;;;;;;;;;5043269;28;19913;-48
2022/03/29 16:02:54;;;;;;;;;;;;;;;;;;5024609;28;19909;-47
2022/03/29 16:05:21;;;;;;;;;;;;;;;;;;5024737;28;19912;-48
2022/03/29 16:07:47;;;;;;;;;;;;;;;;;;5026984;28;19905;-49
2022/03/29 16:10:13;;;;;;;;;;;;;;;;;;5033272;28;19935;-47
2022/03/29 16:12:39;;;;;;;;;;;;;;;;;;5027974;28;19905;-50
2022/03/29 16:15:05;;;;;;;;;;;;;;;;;;5028003;28;19908;-50
2022/03/29 16:17:31;;;;;;;;;;;;;;;;;;5028585;28;19908;-49
2022/03/29 16:19:57;;;;;;;;;;;;;;;;;;5039830;28;20350;-48
2022/03/29 16:22:23;;;;;;;;;;;;;;;;;;5047287;28;19915;-48
2022/03/29 16:24:49;;;;;;;;;;;;;;;;;;5046220;28;20489;-48
2022/03/29 16:27:15;;;;;;;;;;;;;;;;;;5047632;28;19908;-50
2022/03/29 16:29:42;;;;;;;;;;;;;;;;;;5046089;28;19916;-46
2022/03/29 16:32:08;;;;;;;;;;;;;;;;;;5047348;28;20261;-48
2022/03/29 16:34:34;;;;;;;;;;;;;;;;;;5039218;28;19909;-49
2022/03/29 16:37:00;;;;;;;;;;;;;;;;;;5028005;28;19951;-49
2022/03/29 16:39:26;;;;;;;;;;;;;;;;;;5028312;28;19964;-50
2022/03/29 16:41:52;;;;;;;;;;;;;;;;;;5030257;28;19908;-52
2022/03/29 16:44:18;;;;;;;;;;;;;;;;;;5031270;28;19909;-51
2022/03/29 16:46:44;;;;;;;;;;;;;;;;;;5043526;28;19935;-50
2022/03/29 16:49:11;;;;;;;;;;;;;;;;;;5031268;28;20696;-50
2022/03/29 16:51:36;;;;;;;;;;;;;;;;;;5026979;28;19909;-49